Дата Пункты Температура Давл., мм. Влажн., % Ветер Погодные явления
Воздуха Воды Направл. Скорость
15.09.18 09:00 Одесса 20.0 21.0 757 69 С-З 2 09 ЧАСОВ
15.09.18 06:00 Одесса 18.0 22.0 756 77 С 1 06 ЧАСОВ
15.09.18 03:00 Одесса 18.0 22.0 757 85 С-З 1 03 ЧАСА
14.09.18 09:00 Одесса 21.0 22.0 757 68 С-З 2 21 ЧАС
14.09.18 06:00 Одесса 21.0 22.0 756 79 С-З 2 18 ЧАСОВ
14.09.18 03:00 Одесса 21.0 22.0 757 83 С 0 15 ЧАСОВ
14.09.18 12:00 Одесса 21.0 21.0 758 77 С 1 12 ЧАСОВ
14.09.18 09:00 Одесса 20.0 21.0 757 73 С 0 09 ЧАСОВ
14.09.18 06:00 Одесса 19.0 21.0 757 79 С-З 2 06 ЧАСОВ
14.09.18 03:00 Одесса 19.0 21.0 757 81 С 1 03 ЧАСА
13.09.18 09:00 Одесса 21.0 22.0 759 67 С-З 1 21 ЧАС
13.09.18 06:00 Одесса 23.0 22.0 759 59 С 0 18 ЧАСОВ
13.09.18 03:00 Одесса 23.0 22.0 761 67 Ю-В 1 15 ЧАСОВ
13.09.18 12:00 Одесса 22.0 21.0 762 79 В 2 12 ЧАСОВ
13.09.18 09:00 Одесса 21.0 21.0 762 83 С-В 2 09 ЧАСОВ
13.09.18 06:00 Одесса 16.0 21.0 762 97 С 0 06 ЧАСОВ
13.09.18 03:00 Одесса 17.0 21.0 763 97 С 0 03 ЧАСА
12.09.18 06:00 Одесса 22.0 21.0 763 69 С 0 18 ЧАСОВ
12.09.18 03:00 Одесса 23.0 21.0 763 67 С-В 3 15 ЧАСОВ
12.09.18 12:00 Одесса 21.0 21.0 762 81 С-В 4 12 ЧАСОВ
Количество строк
1 2 3 4 5 6 7 8 9 10
Page 4 of 407